»·PEaware :: N12683 KPDX-KUIL

N12683 :: KPDX-KUIL

FLIGHT INFORMATION

Flight Status: Arrived
Operator: Privately registered:
United States
More flights under this callsign
Pilot: Anonymous 22620 (22620)
Aircraft: CESSNA 172 SKYHAWK
(C172)
More flights by this aircraft type
Origin: KPDX Portland Intl
United States
Destination: KUIL Quillayute
United States
More flights between these airports :: More routes between these airports
Route: +
File this flight plan on PilotEdge
Remarks:
Altitude:
(Current/Filed)
4,500ft
Speed:
(Current/Filed)
110kts
Departed: 17-Jun-20 05:06 PM
Arrived: 17-Jun-20 06:48 PM
Distance/Time
Traveled:
162nm/1:42
Distance/Time
To Go:
Arrived

Flight Plot

Page will automatically refresh every two minutes.


Map Options




Map Legend


Flown Route
Filed Route
Departure Airport
Arrival Airport
Navaid (VOR, NDB)
Fix

Horizontal Profiles

Position Reports

Time Latitude Longitude Heading Altitude Ground
Speed
17-Jun-20 16:48 45.586488 -122.581168 299 26ft 0kts
17-Jun-20 16:49 45.586488 -122.581168 299 26ft 0kts
17-Jun-20 16:50 45.586488 -122.581168 299 26ft 0kts
17-Jun-20 16:51 45.586488 -122.581168 299 26ft 0kts
17-Jun-20 16:52 45.586488 -122.581168 299 26ft 0kts
17-Jun-20 16:53 45.586488 -122.581168 299 26ft 0kts
17-Jun-20 16:54 45.586488 -122.581168 299 26ft 0kts
17-Jun-20 16:55 45.586488 -122.581168 299 26ft 0kts
17-Jun-20 16:56 45.586639 -122.581294 21 26ft 2kts
17-Jun-20 16:57 45.586472 -122.580082 118 26ft 0kts
17-Jun-20 16:58 45.586470 -122.580079 121 26ft 0kts
17-Jun-20 16:59 45.586423 -122.579868 95 26ft 2kts
17-Jun-20 17:00 45.586399 -122.577252 120 26ft 12kts
17-Jun-20 17:01 45.584475 -122.572339 117 26ft 18kts
17-Jun-20 17:02 45.582785 -122.567292 49 26ft 0kts
17-Jun-20 17:03 45.582785 -122.567292 49 26ft 0kts
17-Jun-20 17:04 45.584134 -122.568232 299 26ft 29kts
17-Jun-20 17:05 45.591779 -122.589879 298 446ft 89kts
17-Jun-20 17:06 45.601720 -122.615133 331 1214ft 88kts
17-Jun-20 17:07 45.624800 -122.615659 27 1847ft 105kts
17-Jun-20 17:08 45.653501 -122.597261 7 2448ft 110kts
17-Jun-20 17:09 45.683937 -122.593974 0 3259ft 92kts
17-Jun-20 17:10 45.710418 -122.592905 359 4102ft 76kts
17-Jun-20 17:11 45.738161 -122.591971 359 4504ft 111kts
17-Jun-20 17:12 45.758826 -122.626076 297 4492ft 115kts
17-Jun-20 17:13 45.774059 -122.671854 296 4488ft 110kts
17-Jun-20 17:14 45.788430 -122.715684 297 4489ft 107kts
17-Jun-20 17:15 45.802455 -122.758550 297 4490ft 106kts
17-Jun-20 17:16 45.816733 -122.802236 297 4491ft 111kts
17-Jun-20 17:17 45.831834 -122.848591 296 4490ft 113kts
17-Jun-20 17:18 45.846708 -122.894265 297 4491ft 113kts
17-Jun-20 17:19 45.860685 -122.937256 297 4492ft 113kts
17-Jun-20 17:20 45.874549 -122.980005 297 4498ft 113kts
17-Jun-20 17:21 45.888565 -123.023317 297 4502ft 113kts
17-Jun-20 17:22 45.902078 -123.065071 297 4510ft 112kts
17-Jun-20 17:23 45.917313 -123.112364 297 4515ft 113kts
17-Jun-20 17:24 45.930428 -123.153308 297 4517ft 112kts
17-Jun-20 17:25 45.943571 -123.194294 297 4518ft 113kts
17-Jun-20 17:26 45.956718 -123.235251 298 4518ft 112kts
17-Jun-20 17:27 45.969668 -123.275661 298 4526ft 111kts
17-Jun-20 17:28 45.982634 -123.316182 298 4526ft 111kts
17-Jun-20 17:29 45.995518 -123.356470 298 4525ft 111kts
17-Jun-20 17:30 46.007980 -123.395515 298 4530ft 111kts
17-Jun-20 17:31 46.019732 -123.432440 298 4537ft 111kts
17-Jun-20 17:32 46.032432 -123.472319 298 4541ft 112kts
17-Jun-20 17:33 46.045319 -123.512909 298 4547ft 111kts
17-Jun-20 17:34 46.058137 -123.553219 297 4549ft 112kts
17-Jun-20 17:35 46.071017 -123.593989 298 4554ft 109kts
17-Jun-20 17:36 46.083276 -123.632787 299 4545ft 106kts
17-Jun-20 17:37 46.095401 -123.671153 298 4499ft 106kts
17-Jun-20 17:38 46.107521 -123.709588 298 4504ft 110kts
17-Jun-20 17:39 46.120319 -123.750265 298 4501ft 111kts
17-Jun-20 17:40 46.133084 -123.790893 298 4501ft 111kts
17-Jun-20 17:41 46.145884 -123.831690 298 4503ft 112kts
17-Jun-20 17:42 46.158723 -123.872678 299 4503ft 111kts
17-Jun-20 17:43 46.185858 -123.888295 345 4499ft 107kts
17-Jun-20 17:44 46.215012 -123.898752 346 4499ft 108kts
17-Jun-20 17:45 46.244107 -123.908794 346 4500ft 107kts
17-Jun-20 17:46 46.273240 -123.918735 346 4498ft 107kts
17-Jun-20 17:47 46.302375 -123.928629 346 4500ft 107kts
17-Jun-20 17:48 46.331403 -123.938468 346 4501ft 107kts
17-Jun-20 17:49 46.360555 -123.948371 346 4500ft 107kts
17-Jun-20 17:50 46.389641 -123.958290 347 4502ft 107kts
17-Jun-20 17:51 46.418689 -123.968184 346 4500ft 107kts
17-Jun-20 17:52 46.447665 -123.978065 346 4499ft 108kts
17-Jun-20 17:53 46.476865 -123.988068 346 4499ft 108kts
17-Jun-20 17:54 46.505956 -123.997995 346 4501ft 107kts
17-Jun-20 17:55 46.535188 -124.008023 346 4501ft 107kts
17-Jun-20 17:56 46.564442 -124.018049 346 4486ft 107kts
17-Jun-20 17:57 46.593495 -124.028011 346 4486ft 107kts
17-Jun-20 17:58 46.622739 -124.038064 346 4487ft 108kts
17-Jun-20 18:00 46.651905 -124.048095 346 4487ft 108kts
17-Jun-20 18:01 46.681118 -124.058155 346 4488ft 108kts
17-Jun-20 18:02 46.710396 -124.068247 346 4489ft 108kts
17-Jun-20 18:03 46.739523 -124.078304 346 4490ft 108kts
17-Jun-20 18:04 46.768900 -124.088453 346 4490ft 109kts
17-Jun-20 18:05 46.798440 -124.098667 346 4491ft 109kts
17-Jun-20 18:06 46.827965 -124.108896 346 4490ft 109kts
17-Jun-20 18:07 46.857473 -124.119119 346 4490ft 109kts
17-Jun-20 18:08 46.886988 -124.129374 346 4490ft 109kts
17-Jun-20 18:09 46.916440 -124.139607 345 4490ft 109kts
17-Jun-20 18:10 46.945941 -124.149923 344 4490ft 109kts
17-Jun-20 18:11 46.975171 -124.161849 343 4499ft 108kts
17-Jun-20 18:12 47.004320 -124.173795 343 4501ft 108kts
17-Jun-20 18:13 47.033530 -124.185813 343 4508ft 109kts
17-Jun-20 18:14 47.063432 -124.198121 343 4324ft 118kts
17-Jun-20 18:15 47.092655 -124.210130 343 3783ft 98kts
17-Jun-20 18:16 47.118536 -124.220835 342 3518ft 105kts
17-Jun-20 18:17 47.148132 -124.233077 343 3506ft 108kts
17-Jun-20 18:18 47.176608 -124.244850 343 3508ft 105kts
17-Jun-20 18:18 47.199922 -124.254505 343 3510ft 105kts
17-Jun-20 18:20 47.233709 -124.268500 342 3490ft 108kts
17-Jun-20 18:20 47.257865 -124.278526 342 3489ft 108kts
17-Jun-20 18:21 47.286881 -124.290584 342 3490ft 108kts
17-Jun-20 18:23 47.320799 -124.304698 342 3491ft 109kts
17-Jun-20 18:23 47.345185 -124.314851 342 3490ft 109kts
17-Jun-20 18:24 47.374398 -124.327024 342 3491ft 109kts
17-Jun-20 18:25 47.403703 -124.339249 342 3466ft 111kts
17-Jun-20 18:26 47.434146 -124.352037 342 3297ft 115kts
17-Jun-20 18:27 47.463703 -124.364317 341 3046ft 108kts
17-Jun-20 18:28 47.491139 -124.375369 342 2843ft 100kts
17-Jun-20 18:29 47.518134 -124.386509 342 2623ft 103kts
17-Jun-20 18:30 47.546681 -124.398439 342 2525ft 109kts
17-Jun-20 18:31 47.576748 -124.411104 341 2484ft 114kts
17-Jun-20 18:32 47.607813 -124.424099 342 2485ft 117kts
17-Jun-20 18:33 47.638786 -124.437150 342 2486ft 115kts
17-Jun-20 18:34 47.669837 -124.450241 342 2486ft 116kts
17-Jun-20 18:35 47.700927 -124.463458 343 2516ft 112kts
17-Jun-20 18:36 47.732134 -124.476600 342 2478ft 118kts
17-Jun-20 18:37 47.760514 -124.488591 342 2118ft 94kts
17-Jun-20 18:38 47.786189 -124.499491 342 1816ft 97kts
17-Jun-20 18:39 47.812108 -124.510466 342 1516ft 97kts
17-Jun-20 18:40 47.838043 -124.521473 343 1217ft 96kts
17-Jun-20 18:41 47.862756 -124.531977 343 1194ft 97kts
17-Jun-20 18:42 47.887959 -124.541779 346 1087ft 88kts
17-Jun-20 18:43 47.909651 -124.552920 334 955ft 83kts
17-Jun-20 18:44 47.931209 -124.558641 46 909ft 88kts
17-Jun-20 18:45 47.943514 -124.534498 336 716ft 66kts
17-Jun-20 18:46 47.938666 -124.557536 239 202ft 60kts
17-Jun-20 18:47 47.935663 -124.566456 325 196ft 3kts
17-Jun-20 18:48 47.936229 -124.567234 157 196ft 0kts
17-Jun-20 18:49 47.942541 -124.534150 352 726ft 68kts
17-Jun-20 18:50 47.939572 -124.555347 240 231ft 69kts
17-Jun-20 18:51 47.938579 -124.557746 238 201ft 59kts
17-Jun-20 18:52 47.936229 -124.567234 157 196ft 0kts

Navigation Log

Ident Type
Flight plan parsing failed, navigation log unavailable